createdAt,value
2022-10-05T00:00:37.429Z,1039.3
2022-10-05T00:02:21.120Z,1013.4
2022-10-05T00:04:04.828Z,1003.4
2022-10-05T00:05:48.528Z,1002.7
2022-10-05T00:07:32.236Z,1010.8
2022-10-05T00:09:15.940Z,1019.7
2022-10-05T00:10:59.635Z,1024.4
2022-10-05T00:12:43.383Z,1027.3
2022-10-05T00:14:27.041Z,1028.4
2022-10-05T00:16:10.742Z,1036.5
2022-10-05T00:17:54.449Z,1039.5
2022-10-05T00:19:38.167Z,1047.8
2022-10-05T00:21:21.849Z,1048.7
2022-10-05T00:23:05.574Z,1048.1
2022-10-05T00:24:49.252Z,1048.8
2022-10-05T00:26:32.956Z,1053.4
2022-10-05T00:28:16.690Z,1054.2
2022-10-05T00:30:00.391Z,1055.5
2022-10-05T00:31:44.075Z,1054
2022-10-05T00:33:27.783Z,1055.2
2022-10-05T00:35:11.480Z,1054.3
2022-10-05T00:36:55.194Z,1054.2
2022-10-05T00:38:38.881Z,1053.9
2022-10-05T00:40:22.579Z,1044.6
2022-10-05T00:42:06.290Z,1043.7
2022-10-05T00:43:49.981Z,1043.3
2022-10-05T00:45:33.706Z,1036.9
2022-10-05T00:47:17.399Z,1028.1
2022-10-05T00:49:01.087Z,1033.8
2022-10-05T00:50:44.871Z,1035.6
2022-10-05T00:52:28.483Z,1035.9
2022-10-05T00:54:12.194Z,1035.2
2022-10-05T00:55:55.926Z,1028.3
2022-10-05T00:57:39.586Z,1029.8
2022-10-05T00:59:23.362Z,1033.8
2022-10-05T01:01:07.028Z,1033.4
2022-10-05T01:02:50.765Z,1035.2
2022-10-05T01:04:34.407Z,1037.3
2022-10-05T01:06:18.147Z,1035.3
2022-10-05T01:08:01.837Z,1036.4
2022-10-05T01:09:45.514Z,1033.1
2022-10-05T01:11:29.213Z,1031.1
2022-10-05T01:13:12.923Z,1029.1
2022-10-05T01:14:56.619Z,1025.1
2022-10-05T01:16:40.310Z,1027.2
2022-10-05T01:18:24.058Z,1025.7
2022-10-05T01:20:07.733Z,1032.3
2022-10-05T01:21:51.426Z,1029.2
2022-10-05T01:23:35.123Z,1032.1
2022-10-05T01:25:18.870Z,1033.9
2022-10-05T01:27:02.542Z,1035.4
2022-10-05T01:28:46.245Z,1036.9
2022-10-05T01:30:29.935Z,1037.7
2022-10-05T01:32:13.645Z,1040.3
2022-10-05T01:33:57.344Z,1042.2
2022-10-05T01:35:41.049Z,1040.2
2022-10-05T01:37:24.811Z,1038.3
2022-10-05T01:39:08.452Z,1039.4
2022-10-05T01:40:52.154Z,1038.7
2022-10-05T01:42:35.855Z,1037.1
2022-10-05T01:44:19.577Z,1036.6
2022-10-05T01:46:03.261Z,1038.9
2022-10-05T01:47:46.971Z,1041.4
2022-10-05T01:49:30.683Z,1044
2022-10-05T01:51:14.366Z,1048.3
2022-10-05T01:52:58.072Z,1051.9
2022-10-05T01:54:41.771Z,1051.3
2022-10-05T01:56:25.483Z,1050.7
2022-10-05T01:58:09.185Z,1051.7
2022-10-05T01:59:52.882Z,1049.1
2022-10-05T02:01:36.592Z,1047
2022-10-05T02:03:20.294Z,1049.4
2022-10-05T02:05:04.015Z,1052
2022-10-05T02:06:47.697Z,1050.4
2022-10-05T02:08:31.397Z,1051.3
2022-10-05T02:10:15.097Z,1054
2022-10-05T02:11:58.800Z,1057.5
2022-10-05T02:13:42.498Z,1061.6
2022-10-05T02:15:26.244Z,1059
2022-10-05T02:17:09.908Z,1057.4
2022-10-05T02:18:53.610Z,1056.2
2022-10-05T02:20:37.319Z,1054.3
2022-10-05T02:22:21.007Z,1055.2
2022-10-05T02:24:04.722Z,1071.5
2022-10-05T02:25:48.424Z,1080.3
2022-10-05T02:27:32.136Z,1073.3
2022-10-05T02:29:15.820Z,1068.1
2022-10-05T02:30:59.523Z,1066.6
2022-10-05T02:32:43.233Z,1064.6
2022-10-05T02:34:26.942Z,1062.3
2022-10-05T02:36:10.629Z,1060.6
2022-10-05T02:37:54.333Z,1062.1
2022-10-05T02:39:38.039Z,1062.5
2022-10-05T02:41:21.741Z,1062.9
2022-10-05T02:43:05.442Z,1063.7
2022-10-05T02:44:49.152Z,1061.7
2022-10-05T02:46:32.847Z,1061.7
2022-10-05T02:48:16.644Z,1062.4
2022-10-05T02:50:00.253Z,1064.7
2022-10-05T02:51:43.952Z,1070.5
2022-10-05T02:53:27.658Z,1071.4
2022-10-05T02:55:11.381Z,1068.4
2022-10-05T02:56:55.065Z,1064.6
2022-10-05T02:58:38.772Z,1067.9
2022-10-05T03:00:22.468Z,1067.6
2022-10-05T03:02:06.193Z,1070.9
2022-10-05T03:03:49.876Z,1072
2022-10-05T03:05:33.579Z,1070.3
2022-10-05T03:07:17.302Z,1071.7
2022-10-05T03:09:00.985Z,1073.1
2022-10-05T03:12:28.387Z,1081.9
2022-10-05T03:14:12.093Z,1083.2
2022-10-05T03:15:55.802Z,1079.6
2022-10-05T03:17:39.506Z,1078.7
2022-10-05T03:19:23.226Z,1079.6
2022-10-05T03:21:06.905Z,1079.8
2022-10-05T03:22:50.617Z,1080.7
2022-10-05T03:24:34.306Z,1082.3
2022-10-05T03:26:18.013Z,1086.3
2022-10-05T03:28:01.710Z,1086.5
2022-10-05T03:29:45.423Z,1086.7
2022-10-05T03:31:29.123Z,1089.7
2022-10-05T03:33:12.817Z,1087.7
2022-10-05T03:34:56.553Z,1088.7
2022-10-05T03:36:40.311Z,1085.3
2022-10-05T03:38:23.941Z,1091.4
2022-10-05T03:40:07.652Z,1093.4
2022-10-05T03:41:51.348Z,1090.6
2022-10-05T03:43:35.046Z,1089.2
2022-10-05T03:45:18.757Z,1090.9
2022-10-05T03:47:02.443Z,1088
2022-10-05T03:48:46.142Z,1088.6
2022-10-05T03:50:29.847Z,1089.2
2022-10-05T03:52:13.556Z,1094.8
2022-10-05T03:53:57.250Z,1100.8
2022-10-05T03:55:40.956Z,1100.4
2022-10-05T03:57:24.651Z,1101.6
2022-10-05T03:59:08.351Z,1103
2022-10-05T04:00:52.059Z,1097.1
2022-10-05T04:02:35.767Z,1096.9
2022-10-05T04:04:19.466Z,1093.6
2022-10-05T04:06:03.159Z,1092.2
2022-10-05T04:07:46.873Z,1096.1
2022-10-05T04:09:30.568Z,1101.4
2022-10-05T04:11:14.268Z,1102.7
2022-10-05T04:12:57.972Z,1105
2022-10-05T04:14:41.680Z,1107.7
2022-10-05T04:16:25.386Z,1109.7
2022-10-05T04:18:09.092Z,1110.6
2022-10-05T04:19:52.791Z,1109.5
2022-10-05T04:21:36.496Z,1110.4
2022-10-05T04:23:20.232Z,1105.8
2022-10-05T04:25:03.888Z,1104.9
2022-10-05T04:26:47.594Z,1106.6
2022-10-05T04:28:31.301Z,1106.8
2022-10-05T04:30:14.997Z,1107.4
2022-10-05T04:31:58.700Z,1107.6
2022-10-05T04:33:42.426Z,1109.3
2022-10-05T04:35:26.110Z,1111.4
2022-10-05T04:37:09.838Z,1114
2022-10-05T04:38:53.521Z,1111.5
2022-10-05T04:40:37.219Z,1103.9
2022-10-05T04:42:20.928Z,1104.3
2022-10-05T04:44:04.694Z,1111.1
2022-10-05T04:45:48.325Z,1116.1
2022-10-05T04:47:32.054Z,1118.9
2022-10-05T04:49:15.720Z,1173.8
2022-10-05T04:50:59.432Z,1211.5
2022-10-05T04:52:43.162Z,1227.4
2022-10-05T04:54:26.835Z,1227.5
2022-10-05T04:56:10.538Z,1217.1
2022-10-05T04:57:54.239Z,1212.4
2022-10-05T04:59:37.939Z,1213.1
2022-10-05T05:01:21.650Z,1216.1
2022-10-05T05:03:05.350Z,1210.6
2022-10-05T05:04:49.045Z,1209.8
2022-10-05T05:06:32.757Z,1422.9
2022-10-05T05:08:16.450Z,1464.1
2022-10-05T05:10:00.232Z,1430.4
2022-10-05T05:11:43.937Z,1368.7
2022-10-05T05:13:27.560Z,1355.6
2022-10-05T05:15:11.265Z,1360
2022-10-05T05:16:54.965Z,1373.8
2022-10-05T05:18:38.708Z,1409.5
2022-10-05T05:20:22.376Z,1426.2
2022-10-05T05:22:06.072Z,1458.5
2022-10-05T05:23:49.776Z,1486.3
2022-10-05T05:25:33.474Z,1495.3
2022-10-05T05:27:17.189Z,1503.6
2022-10-05T05:29:00.916Z,1511.6
2022-10-05T05:30:44.592Z,1520.7
2022-10-05T05:32:28.285Z,1524.3
2022-10-05T05:34:11.998Z,1515
2022-10-05T05:35:55.694Z,1493
2022-10-05T05:37:39.398Z,1490.5
2022-10-05T05:39:23.095Z,1487.9
2022-10-05T05:41:06.837Z,1480.5
2022-10-05T05:42:50.565Z,1484.6
2022-10-05T05:44:34.221Z,1482.6
2022-10-05T05:46:17.906Z,1459.7
2022-10-05T05:48:01.616Z,1459.7
2022-10-05T05:49:45.375Z,1458.1
2022-10-05T05:51:29.076Z,1454.4
2022-10-05T05:53:12.737Z,1452.1
2022-10-05T05:54:56.431Z,1446
2022-10-05T05:56:40.128Z,1438.9
2022-10-05T05:58:23.831Z,1440
2022-10-05T06:00:07.530Z,1433.2
2022-10-05T06:01:51.228Z,1435.2
2022-10-05T06:03:35.017Z,1437.9
2022-10-05T06:05:18.691Z,1437.1
2022-10-05T06:07:02.368Z,1434
2022-10-05T06:08:46.069Z,1426.8
2022-10-05T06:12:13.490Z,1425.2
2022-10-05T06:13:57.188Z,1425.4
2022-10-05T06:15:40.861Z,1421.9
2022-10-05T06:17:24.676Z,1417.9
2022-10-05T06:19:08.254Z,1409.4
2022-10-05T06:20:51.971Z,1410.1
2022-10-05T06:22:35.647Z,1408.6
2022-10-05T06:24:19.361Z,1406.2
2022-10-05T06:26:03.065Z,1402.8
2022-10-05T06:27:46.900Z,1403.8
2022-10-05T06:29:30.607Z,1405.8
2022-10-05T06:31:14.163Z,1402.8
2022-10-05T06:32:57.895Z,1406.8
2022-10-05T06:34:41.574Z,1405.6
2022-10-05T06:36:25.294Z,1408.1
2022-10-05T06:38:08.974Z,1407.5
2022-10-05T06:39:52.730Z,1403
2022-10-05T06:41:36.383Z,1400.9
2022-10-05T06:43:20.107Z,1393.1
2022-10-05T06:45:03.882Z,1392.3
2022-10-05T06:46:47.512Z,1395.6
2022-10-05T06:48:31.286Z,1395.8
2022-10-05T06:50:14.890Z,1401.8
2022-10-05T06:51:58.639Z,1403.7
2022-10-05T06:53:42.428Z,1404.5
2022-10-05T06:55:25.999Z,1404.2
2022-10-05T06:57:09.799Z,1401.7
2022-10-05T06:58:53.409Z,1400.6
2022-10-05T07:00:37.097Z,1402.5
2022-10-05T07:02:20.814Z,1401.9
2022-10-05T07:04:04.537Z,1399.5
2022-10-05T07:05:48.229Z,1401.5
2022-10-05T07:07:31.954Z,1403.3
2022-10-05T07:09:15.636Z,1401.8
2022-10-05T07:10:59.361Z,1393.7
2022-10-05T07:12:43.043Z,1394.3
2022-10-05T07:14:26.736Z,1399.1
2022-10-05T07:16:10.448Z,1396.5
2022-10-05T07:17:54.158Z,1395.6
2022-10-05T07:19:37.866Z,1397.2
2022-10-05T07:21:21.536Z,1397.1
2022-10-05T07:23:05.399Z,1399.5
2022-10-05T07:24:48.983Z,1399.5
2022-10-05T07:26:32.661Z,1402
2022-10-05T07:28:16.372Z,1402
2022-10-05T07:30:00.066Z,1400.4
2022-10-05T07:31:43.750Z,1401
2022-10-05T07:33:27.581Z,1402.5
2022-10-05T07:35:11.150Z,1400.5
2022-10-05T07:36:55.017Z,1399.3
2022-10-05T07:38:38.551Z,1395.6
2022-10-05T07:40:22.260Z,1399.1
2022-10-05T07:42:05.967Z,1398.2
2022-10-05T07:43:49.666Z,1398.5
2022-10-05T07:45:33.377Z,1399.9
2022-10-05T07:47:17.123Z,1400.1
2022-10-05T07:49:00.801Z,1400.5
2022-10-05T07:50:44.485Z,1401.3
2022-10-05T07:52:28.164Z,1404.2
2022-10-05T07:54:11.882Z,1402.9
2022-10-05T07:55:55.608Z,1406.3
2022-10-05T07:57:39.430Z,1406.8
2022-10-05T07:59:23.058Z,1408
2022-10-05T08:01:06.678Z,1410.1
2022-10-05T08:02:50.383Z,1410.6
2022-10-05T08:04:34.134Z,1409.4
2022-10-05T08:06:17.787Z,1408.3
2022-10-05T08:08:01.510Z,1406.4
2022-10-05T08:09:45.245Z,1405.8
2022-10-05T08:11:28.990Z,1400.5
2022-10-05T08:13:12.611Z,1402.5
2022-10-05T08:14:56.415Z,1409.9
2022-10-05T08:16:40.107Z,1410.9
2022-10-05T08:18:23.825Z,1405.4
2022-10-05T08:20:07.403Z,1402.5
2022-10-05T08:21:51.111Z,1402.9
2022-10-05T08:23:34.868Z,1402.3
2022-10-05T08:25:18.617Z,1400
2022-10-05T08:27:02.239Z,1401.8
2022-10-05T08:28:45.924Z,1402.4
2022-10-05T08:30:29.643Z,1399
2022-10-05T08:32:13.351Z,1396.6
2022-10-05T08:33:57.049Z,1398.2
2022-10-05T08:35:40.753Z,1401.2
2022-10-05T08:37:24.426Z,1402.1
2022-10-05T08:39:08.160Z,1403.8
2022-10-05T08:40:51.909Z,1399.4
2022-10-05T08:42:35.568Z,1401
2022-10-05T08:44:19.229Z,1399.8
2022-10-05T08:46:02.943Z,1398.6
2022-10-05T08:47:46.647Z,1395.6
2022-10-05T08:49:30.338Z,1398.1
2022-10-05T08:51:14.043Z,1393.8
2022-10-05T08:52:57.826Z,1394.6
2022-10-05T08:54:41.447Z,1394
2022-10-05T08:56:25.149Z,1392.3
2022-10-05T08:58:08.859Z,1385.1
2022-10-05T08:59:52.558Z,1381.8
2022-10-05T09:01:36.375Z,1379.4
2022-10-05T09:03:19.979Z,1378.5
2022-10-05T09:05:03.705Z,1382.8
2022-10-05T09:06:47.379Z,1389.2
2022-10-05T09:08:31.069Z,1385.1
2022-10-05T09:11:58.476Z,1384
2022-10-05T09:13:42.174Z,1382.9
2022-10-05T09:15:25.925Z,1379.4
2022-10-05T09:17:09.600Z,1377.7
2022-10-05T09:18:53.285Z,1376.7
2022-10-05T09:20:36.999Z,1378.5
2022-10-05T09:22:20.785Z,1383.3
2022-10-05T09:24:04.533Z,1378.5
2022-10-05T09:25:48.127Z,1370.6
2022-10-05T09:27:31.862Z,1374.3
2022-10-05T09:29:15.501Z,1368.8
2022-10-05T09:30:59.207Z,1364.2
2022-10-05T09:32:42.901Z,1359.1
2022-10-05T09:34:26.607Z,1344.1
2022-10-05T09:36:10.322Z,1342.2
2022-10-05T09:37:54.010Z,1339.9
2022-10-05T09:39:37.736Z,1338
2022-10-05T09:41:21.419Z,1332
2022-10-05T09:44:48.863Z,1327.2
2022-10-05T09:46:32.532Z,1329.6
2022-10-05T09:49:59.926Z,1327.7
2022-10-05T09:51:43.722Z,1325.2
2022-10-05T09:55:11.057Z,1323.8
2022-10-05T09:56:54.879Z,1321.5
2022-10-05T09:58:38.472Z,1322
2022-10-05T10:00:22.143Z,1323.2
2022-10-05T10:02:05.967Z,1326.1
2022-10-05T10:03:49.639Z,1328.6
2022-10-05T10:05:33.237Z,1327.2
2022-10-05T10:07:16.991Z,1328.6
2022-10-05T10:09:00.679Z,1329.3
2022-10-05T10:12:28.155Z,1325
2022-10-05T10:14:11.744Z,1317.7
2022-10-05T10:15:55.456Z,1313.1
2022-10-05T10:17:39.237Z,1308.9
2022-10-05T10:19:22.857Z,1304.1
2022-10-05T10:21:06.553Z,1305.4
2022-10-05T10:26:17.679Z,1303.3
2022-10-05T10:28:01.385Z,1305.4
2022-10-05T10:29:45.140Z,1301.1
2022-10-05T10:31:28.833Z,1300.6
2022-10-05T10:33:12.468Z,1299
2022-10-05T10:35:03.204Z,1298.1
2022-10-05T10:36:40.043Z,1301.8
2022-10-05T10:38:23.585Z,1305.3
2022-10-05T10:40:07.320Z,1304.8
2022-10-05T10:41:58.097Z,1304.7
2022-10-05T10:43:34.705Z,1300.7
2022-10-05T10:45:18.420Z,1299
2022-10-05T10:47:02.085Z,1299.7
2022-10-05T10:48:45.822Z,1299.3
2022-10-05T10:50:29.665Z,1299.2
2022-10-05T10:52:13.229Z,1299
2022-10-05T10:53:56.942Z,1295.2
2022-10-05T10:55:40.714Z,1293.6
2022-10-05T10:57:24.290Z,1294.2
2022-10-05T10:59:08.052Z,1296.9
2022-10-05T11:00:51.696Z,1288
2022-10-05T11:02:35.425Z,1179.4
2022-10-05T11:04:19.118Z,1126.8
2022-10-05T11:06:02.852Z,996.9
2022-10-05T11:07:46.717Z,951.3
2022-10-05T11:09:30.343Z,850.5
2022-10-05T11:11:13.909Z,818.3
2022-10-05T11:12:57.610Z,805.8
2022-10-05T11:14:41.388Z,784.3
2022-10-05T11:16:25.038Z,729.2
2022-10-05T11:18:08.741Z,700.1
2022-10-05T11:19:52.441Z,674.6
2022-10-05T11:21:36.154Z,647.2
2022-10-05T11:23:19.838Z,641
2022-10-05T11:25:03.571Z,636.3
2022-10-05T11:26:47.385Z,624
2022-10-05T11:28:30.965Z,610.9
2022-10-05T11:30:14.625Z,598.3
2022-10-05T11:31:58.330Z,586.4
2022-10-05T11:33:42.092Z,572
2022-10-05T11:35:25.784Z,572
2022-10-05T11:37:09.487Z,574.9
2022-10-05T11:38:53.152Z,580.8
2022-10-05T11:40:36.849Z,589.1
2022-10-05T11:42:20.664Z,596.2
2022-10-05T11:44:04.376Z,607
2022-10-05T11:45:48.064Z,612.4
2022-10-05T11:47:31.702Z,620.9
2022-10-05T11:49:15.375Z,629.1
2022-10-05T11:50:59.042Z,629.9
2022-10-05T11:52:42.807Z,631.3
2022-10-05T11:54:26.442Z,637.7
2022-10-05T11:56:10.144Z,643.6
2022-10-05T11:57:53.929Z,643.9
2022-10-05T11:59:37.554Z,646.6
2022-10-05T12:01:21.319Z,653.3
2022-10-05T12:03:05.002Z,657.3
2022-10-05T12:04:48.676Z,663.3
2022-10-05T12:06:32.360Z,668.9
2022-10-05T12:08:16.103Z,671.3
2022-10-05T12:09:59.759Z,672.9
2022-10-05T12:11:43.519Z,673.3
2022-10-05T12:13:27.171Z,675.2
2022-10-05T12:15:10.859Z,672.9
2022-10-05T12:16:54.578Z,670.8
2022-10-05T12:18:38.282Z,673.5
2022-10-05T12:20:22.002Z,674.5
2022-10-05T12:22:05.676Z,679.9
2022-10-05T12:23:49.382Z,684.4
2022-10-05T12:25:33.090Z,686.3
2022-10-05T12:27:16.783Z,687.4
2022-10-05T12:30:44.182Z,689.9
2022-10-05T12:32:27.907Z,690.7
2022-10-05T12:34:11.661Z,692.9
2022-10-05T12:35:55.308Z,695.9
2022-10-05T12:37:38.990Z,705.3
2022-10-05T12:39:22.713Z,712.9
2022-10-05T12:41:06.418Z,727.3
2022-10-05T12:42:50.100Z,738.7
2022-10-05T12:44:33.808Z,750.8
2022-10-05T12:46:17.516Z,760.1
2022-10-05T12:48:01.204Z,761.6
2022-10-05T12:49:44.911Z,759.8
2022-10-05T12:51:28.603Z,763.1
2022-10-05T12:53:12.309Z,764.2
2022-10-05T12:54:56.012Z,764.8
2022-10-05T12:56:39.751Z,767.1
2022-10-05T12:58:23.416Z,770.1
2022-10-05T13:00:07.123Z,772.9
2022-10-05T13:01:50.833Z,773
2022-10-05T13:03:34.520Z,776
2022-10-05T13:05:18.248Z,777.1
2022-10-05T13:07:01.928Z,777.3
2022-10-05T13:08:45.635Z,778.7
2022-10-05T13:10:29.336Z,776.8
2022-10-05T13:12:13.023Z,776.2
2022-10-05T13:13:56.726Z,775.9
2022-10-05T13:15:40.440Z,778.9
2022-10-05T13:17:24.146Z,780.9
2022-10-05T13:19:07.830Z,779.6
2022-10-05T13:20:51.531Z,777.4
2022-10-05T13:22:35.260Z,775.9
2022-10-05T13:24:18.938Z,777.7
2022-10-05T13:26:02.636Z,775.7
2022-10-05T13:27:46.346Z,774.4
2022-10-05T13:29:30.041Z,771.2
2022-10-05T13:31:13.745Z,770.7
2022-10-05T13:32:57.446Z,769.8
2022-10-05T13:34:41.153Z,773.6
2022-10-05T13:36:24.853Z,777.3
2022-10-05T13:38:08.549Z,778.4
2022-10-05T13:39:52.249Z,774.2
2022-10-05T13:41:35.962Z,778.1
2022-10-05T13:43:19.670Z,779.6
2022-10-05T13:45:03.371Z,777.4
2022-10-05T13:46:47.060Z,780.3
2022-10-05T13:48:30.827Z,780.3
2022-10-05T13:50:14.468Z,781.4
2022-10-05T13:51:58.158Z,780.5
2022-10-05T13:53:41.909Z,782.7
2022-10-05T13:55:25.568Z,782.7
2022-10-05T13:57:09.269Z,781
2022-10-05T13:58:52.971Z,781.4
2022-10-05T14:00:36.676Z,783.8
2022-10-05T14:02:20.374Z,782.5
2022-10-05T14:04:04.075Z,781.9
2022-10-05T14:05:47.775Z,780.7
2022-10-05T14:07:31.500Z,781.7
2022-10-05T14:09:15.214Z,780.5
2022-10-05T14:10:58.929Z,787.3
2022-10-05T14:12:42.611Z,787.9
2022-10-05T14:14:26.305Z,784
2022-10-05T14:16:10.039Z,780.7
2022-10-05T14:17:53.703Z,770.1
2022-10-05T14:19:37.405Z,763.8
2022-10-05T14:21:21.103Z,755.4
2022-10-05T14:23:04.836Z,749.5
2022-10-05T14:24:48.503Z,744.8
2022-10-05T14:26:32.205Z,736.4
2022-10-05T14:28:15.920Z,727
2022-10-05T14:29:59.625Z,720.6
2022-10-05T14:31:43.310Z,669.1
2022-10-05T14:33:27.015Z,660.7
2022-10-05T14:35:10.716Z,656.7
2022-10-05T14:36:54.421Z,650.9
2022-10-05T14:38:38.150Z,644.1
2022-10-05T14:40:21.819Z,635.9
2022-10-05T14:42:05.530Z,624.3
2022-10-05T14:43:49.233Z,615.2
2022-10-05T14:45:32.930Z,599.4
2022-10-05T14:47:16.639Z,567.6
2022-10-05T14:49:00.326Z,562.7
2022-10-05T14:50:44.101Z,564.9
2022-10-05T14:52:27.743Z,562.6
2022-10-05T14:54:11.438Z,553.5
2022-10-05T14:55:55.145Z,550.1
2022-10-05T14:57:38.891Z,534.1
2022-10-05T14:59:22.547Z,519.8
2022-10-05T15:01:06.384Z,520.3
2022-10-05T15:02:49.953Z,519.3
2022-10-05T15:04:33.652Z,518.9
2022-10-05T15:06:17.373Z,516.1
2022-10-05T15:08:01.179Z,511.9
2022-10-05T15:09:44.771Z,507.2
2022-10-05T15:11:28.480Z,506
2022-10-05T15:13:12.168Z,497.5
2022-10-05T15:14:55.862Z,490.6
2022-10-05T15:16:39.562Z,490.7
2022-10-05T15:18:23.267Z,486
2022-10-05T15:20:06.973Z,482.7
2022-10-05T15:21:50.672Z,476.8
2022-10-05T15:23:34.377Z,475.6
2022-10-05T15:25:18.076Z,473
2022-10-05T15:27:01.778Z,470.4
2022-10-05T15:28:45.477Z,469.7
2022-10-05T15:30:29.185Z,467.8
2022-10-05T15:32:12.888Z,462.7
2022-10-05T15:33:56.590Z,458
2022-10-05T15:35:40.300Z,458.5
2022-10-05T15:37:23.991Z,454.9
2022-10-05T15:39:07.700Z,454.2
2022-10-05T15:40:51.399Z,453.3
2022-10-05T15:42:35.124Z,454.6
2022-10-05T15:44:18.808Z,449.1
2022-10-05T15:46:02.508Z,444.4
2022-10-05T15:47:46.208Z,440.1
2022-10-05T15:49:29.912Z,439.2
2022-10-05T15:51:13.645Z,439.6
2022-10-05T15:52:57.318Z,438.7
2022-10-05T15:54:41.011Z,438.4
2022-10-05T15:56:24.721Z,440.1
2022-10-05T15:58:08.426Z,439
2022-10-05T15:59:52.124Z,435.1
2022-10-05T16:01:35.838Z,431.7
2022-10-05T16:03:19.526Z,430.6
2022-10-05T16:05:03.235Z,434.1
2022-10-05T16:06:46.975Z,434.5
2022-10-05T16:08:30.640Z,431.7
2022-10-05T16:10:14.336Z,429.3
2022-10-05T16:11:58.042Z,428.1
2022-10-05T16:13:41.733Z,426.1
2022-10-05T16:15:25.447Z,426.3
2022-10-05T16:17:09.187Z,423.1
2022-10-05T16:18:52.845Z,419.6
2022-10-05T16:20:36.578Z,420.4
2022-10-05T16:22:20.262Z,423.5
2022-10-05T16:24:03.995Z,422.7
2022-10-05T16:25:47.665Z,421.8
2022-10-05T16:27:31.356Z,421.4
2022-10-05T16:29:15.059Z,422.3
2022-10-05T16:30:58.781Z,420.6
2022-10-05T16:32:42.464Z,420.7
2022-10-05T16:34:26.203Z,421.6
2022-10-05T16:36:09.871Z,420.8
2022-10-05T16:37:53.577Z,422.2
2022-10-05T16:39:37.277Z,423
2022-10-05T16:41:20.977Z,422.7
2022-10-05T16:43:04.679Z,422.2
2022-10-05T16:44:48.384Z,420.6
2022-10-05T16:46:32.117Z,421.7
2022-10-05T16:48:15.781Z,424
2022-10-05T16:49:59.485Z,426.8
2022-10-05T16:51:43.180Z,422.1
2022-10-05T16:53:26.922Z,425
2022-10-05T16:55:10.592Z,430
2022-10-05T16:56:54.294Z,432.7
2022-10-05T16:58:38.004Z,429.2
2022-10-05T17:00:21.703Z,428.6
2022-10-05T17:02:05.400Z,432.7
2022-10-05T17:03:49.110Z,433.3
2022-10-05T17:05:32.800Z,430.4
2022-10-05T17:07:16.504Z,428.8
2022-10-05T17:09:00.203Z,428.9
2022-10-05T17:10:43.909Z,427.4
2022-10-05T17:12:27.613Z,427.3
2022-10-05T17:14:11.315Z,427
2022-10-05T17:15:55.026Z,429.4
2022-10-05T17:17:38.731Z,430.4
2022-10-05T17:19:22.426Z,431.4
2022-10-05T17:21:06.135Z,433.2
2022-10-05T17:22:49.898Z,435.3
2022-10-05T17:24:33.521Z,434.6
2022-10-05T17:26:17.235Z,435.2
2022-10-05T17:28:00.936Z,437.3
2022-10-05T17:29:44.688Z,439.1
2022-10-05T17:31:28.336Z,443.2
2022-10-05T17:33:12.037Z,442.6
2022-10-05T17:34:55.770Z,441.4
2022-10-05T17:36:39.450Z,440.7
2022-10-05T17:38:23.146Z,446.9
2022-10-05T17:40:06.846Z,451.4
2022-10-05T17:41:50.550Z,448.6
2022-10-05T17:43:34.257Z,482.6
2022-10-05T17:45:17.961Z,532.9
2022-10-05T17:47:01.673Z,535.7
2022-10-05T17:48:45.349Z,533.5
2022-10-05T17:50:29.061Z,532.7
2022-10-05T17:52:12.755Z,543.7
2022-10-05T17:53:56.483Z,555.6
2022-10-05T17:55:40.170Z,555.6
2022-10-05T17:57:23.863Z,547.4
2022-10-05T17:59:07.552Z,538.1
2022-10-05T18:00:51.258Z,531.5
2022-10-05T18:02:34.954Z,524.9
2022-10-05T18:04:18.654Z,520.3
2022-10-05T18:06:02.366Z,510
2022-10-05T18:07:46.065Z,502.2
2022-10-05T18:09:29.798Z,498
2022-10-05T18:11:13.472Z,501.5
2022-10-05T18:12:57.198Z,502.7
2022-10-05T18:14:40.890Z,506.4
2022-10-05T18:16:24.577Z,511.4
2022-10-05T18:18:08.278Z,518.7
2022-10-05T18:19:51.991Z,524.7
2022-10-05T18:21:35.676Z,523.1
2022-10-05T18:23:19.386Z,523.3
2022-10-05T18:25:03.094Z,522.4
2022-10-05T18:26:46.786Z,523.4
2022-10-05T18:28:30.503Z,523.6
2022-10-05T18:30:14.190Z,525
2022-10-05T18:31:57.894Z,522.1
2022-10-05T18:33:41.595Z,520.2
2022-10-05T18:35:25.298Z,519.2
2022-10-05T18:37:09.000Z,519.1
2022-10-05T18:38:52.702Z,524.5
2022-10-05T18:40:36.423Z,532.9
2022-10-05T18:42:20.099Z,537.1
2022-10-05T18:44:03.809Z,536.2
2022-10-05T18:45:47.508Z,534.3
2022-10-05T18:47:31.212Z,539.3
2022-10-05T18:49:14.901Z,550.2
2022-10-05T18:50:58.649Z,571.9
2022-10-05T18:52:42.313Z,578.9
2022-10-05T18:54:26.010Z,570.3
2022-10-05T18:56:09.715Z,566.4
2022-10-05T18:57:53.415Z,564.9
2022-10-05T18:59:37.150Z,563.1
2022-10-05T19:01:20.813Z,564.9
2022-10-05T19:03:04.518Z,565.6
2022-10-05T19:04:48.288Z,566
2022-10-05T19:06:31.924Z,570.7
2022-10-05T19:08:15.630Z,575.6
2022-10-05T19:09:59.315Z,581.1
2022-10-05T19:11:43.020Z,583.3
2022-10-05T19:13:26.717Z,589.1
2022-10-05T19:15:10.430Z,590.9
2022-10-05T19:16:54.127Z,596.4
2022-10-05T19:18:37.827Z,596.2
2022-10-05T19:20:21.531Z,597.2
2022-10-05T19:22:05.237Z,595.7
2022-10-05T19:23:48.935Z,597.4
2022-10-05T19:25:32.642Z,598.5
2022-10-05T19:27:16.337Z,600.1
2022-10-05T19:29:00.045Z,605.8
2022-10-05T19:30:43.752Z,608.8
2022-10-05T19:32:27.440Z,611.1
2022-10-05T19:34:11.144Z,616.1
2022-10-05T19:35:54.850Z,620.1
2022-10-05T19:37:38.544Z,622
2022-10-05T19:39:22.253Z,624.3
2022-10-05T19:41:05.952Z,623.5
2022-10-05T19:42:49.696Z,625.5
2022-10-05T19:44:33.364Z,626.4
2022-10-05T19:46:17.055Z,630.7
2022-10-05T19:48:00.813Z,633.8
2022-10-05T19:49:44.461Z,638.1
2022-10-05T19:51:28.165Z,640.7
2022-10-05T19:53:11.901Z,643.3
2022-10-05T19:54:55.610Z,643.5
2022-10-05T19:56:39.268Z,644.4
2022-10-05T19:58:22.971Z,649.8
2022-10-05T20:00:06.684Z,654.1
2022-10-05T20:01:50.373Z,661.1
2022-10-05T20:03:34.102Z,663.4
2022-10-05T20:05:17.830Z,661.6
2022-10-05T20:07:01.484Z,660.3
2022-10-05T20:08:45.186Z,658.3
2022-10-05T20:10:28.889Z,663.7
2022-10-05T20:13:56.296Z,673.9
2022-10-05T20:15:39.997Z,670.3
2022-10-05T20:17:23.692Z,662.4
2022-10-05T20:19:07.818Z,658.2
2022-10-05T20:20:51.097Z,658.8
2022-10-05T20:22:34.872Z,655.1
2022-10-05T20:24:18.494Z,654.9
2022-10-05T20:26:02.195Z,657.8
2022-10-05T20:27:45.903Z,660
2022-10-05T20:29:29.596Z,658
2022-10-05T20:31:13.299Z,660
2022-10-05T20:32:57.085Z,658.9
2022-10-05T20:34:40.705Z,656.2
2022-10-05T20:36:24.410Z,652.7
2022-10-05T20:38:08.115Z,648.7
2022-10-05T20:39:51.809Z,641.3
2022-10-05T20:41:35.520Z,640.8
2022-10-05T20:43:19.207Z,638.6
2022-10-05T20:45:02.933Z,640.4
2022-10-05T20:46:46.616Z,641.4
2022-10-05T20:48:30.316Z,643
2022-10-05T20:50:14.020Z,643.3
2022-10-05T20:51:57.713Z,645.6
2022-10-05T20:55:25.169Z,649.2
2022-10-05T20:57:08.821Z,647.6
2022-10-05T20:58:52.539Z,649.1
2022-10-05T21:00:36.236Z,653.2
2022-10-05T21:02:20.037Z,662.5
2022-10-05T21:04:03.653Z,667
2022-10-05T21:05:47.333Z,670.4
2022-10-05T21:07:31.066Z,672.7
2022-10-05T21:09:14.735Z,672
2022-10-05T21:10:58.505Z,673.2
2022-10-05T21:12:42.196Z,670.4
2022-10-05T21:14:25.876Z,668.2
2022-10-05T21:16:09.540Z,667.2
2022-10-05T21:17:53.247Z,664.5
2022-10-05T21:19:36.971Z,666.1
2022-10-05T21:21:20.658Z,668.2
2022-10-05T21:23:04.358Z,667.5
2022-10-05T21:24:48.102Z,667.8
2022-10-05T21:26:31.763Z,664.8
2022-10-05T21:28:15.457Z,664.3
2022-10-05T21:29:59.164Z,666.6
2022-10-05T21:31:42.870Z,668.4
2022-10-05T21:33:26.561Z,668.1
2022-10-05T21:35:10.265Z,668.1
2022-10-05T21:36:53.967Z,673.3
2022-10-05T21:38:37.667Z,675.9
2022-10-05T21:40:21.361Z,677.3
2022-10-05T21:42:05.070Z,677.3
2022-10-05T21:43:48.771Z,675.2
2022-10-05T21:45:32.475Z,677
2022-10-05T21:47:16.170Z,675.4
2022-10-05T21:48:59.872Z,671.8
2022-10-05T21:50:43.577Z,673.2
2022-10-05T21:52:27.280Z,675.9
2022-10-05T21:54:10.974Z,676.3
2022-10-05T21:55:54.717Z,675.3
2022-10-05T21:57:38.406Z,675.3
2022-10-05T21:59:22.085Z,673.1
2022-10-05T22:01:05.783Z,673.8
2022-10-05T22:02:49.491Z,675.7
2022-10-05T22:04:33.217Z,676.6
2022-10-05T22:06:16.882Z,674.7
2022-10-05T22:08:00.586Z,676.2
2022-10-05T22:09:44.307Z,678.4
2022-10-05T22:11:27.983Z,680.8
2022-10-05T22:13:11.720Z,686.8
2022-10-05T22:14:55.402Z,737.9
2022-10-05T22:16:39.099Z,731.1
2022-10-05T22:18:22.810Z,721.5
2022-10-05T22:20:06.497Z,715.2
2022-10-05T22:21:50.205Z,709.6